createdAt,value
2024-03-03T00:01:10.185Z,6.45
2024-03-03T00:03:37.840Z,6.68
2024-03-03T00:06:09.118Z,6.39
2024-03-03T00:08:37.470Z,6.41
2024-03-03T00:11:06.381Z,6.48
2024-03-03T00:13:35.162Z,6.11
2024-03-03T00:16:07.930Z,6.03
2024-03-03T00:18:40.053Z,6.34
2024-03-03T00:21:15.234Z,6.35
2024-03-03T00:23:43.387Z,6.85
2024-03-03T00:26:10.838Z,6.77
2024-03-03T00:28:38.255Z,6.38
2024-03-03T00:31:05.811Z,6.60
2024-03-03T00:33:33.318Z,7.19
2024-03-03T00:36:00.741Z,6.76
2024-03-03T00:38:28.205Z,6.47
2024-03-03T00:40:55.801Z,6.61
2024-03-03T00:43:23.593Z,6.75
2024-03-03T00:45:51.095Z,7.52
2024-03-03T00:48:18.508Z,6.65
2024-03-03T00:50:45.879Z,6.29
2024-03-03T00:53:13.341Z,6.40
2024-03-03T00:55:47.454Z,6.24
2024-03-03T00:58:16.184Z,5.96
2024-03-03T01:00:44.983Z,6.18
2024-03-03T01:03:12.423Z,5.51
2024-03-03T01:05:39.811Z,5.58
2024-03-03T01:08:07.634Z,5.54
2024-03-03T01:10:35.067Z,5.38
2024-03-03T01:13:02.622Z,6.49
2024-03-03T01:15:30.138Z,5.78
2024-03-03T01:17:57.449Z,5.72
2024-03-03T01:20:26.346Z,6.01
2024-03-03T01:22:53.798Z,7.03
2024-03-03T01:25:21.332Z,6.82
2024-03-03T01:27:48.836Z,6.04
2024-03-03T01:30:16.281Z,6.29
2024-03-03T01:32:43.756Z,6.53
2024-03-03T01:35:11.314Z,5.77
2024-03-03T01:37:38.704Z,5.75
2024-03-03T01:40:08.085Z,5.97
2024-03-03T01:42:35.730Z,5.58
2024-03-03T01:45:04.071Z,5.40
2024-03-03T01:47:32.608Z,5.66
2024-03-03T01:50:00.410Z,5.46
2024-03-03T01:52:30.063Z,4.99
2024-03-03T01:54:58.795Z,5.17
2024-03-03T01:57:26.304Z,5.05
2024-03-03T01:59:56.089Z,5.29
2024-03-03T02:02:24.489Z,5.29
2024-03-03T02:04:52.425Z,5.21
2024-03-03T02:07:22.402Z,5.56
2024-03-03T02:09:50.325Z,6.05
2024-03-03T02:12:19.043Z,5.68
2024-03-03T02:14:46.539Z,5.59
2024-03-03T02:17:13.937Z,5.58
2024-03-03T02:19:41.852Z,6.50
2024-03-03T02:22:09.311Z,5.94
2024-03-03T02:24:36.780Z,5.90
2024-03-03T02:27:05.958Z,6.02
2024-03-03T02:29:33.490Z,6.14
2024-03-03T02:32:00.875Z,6.53
2024-03-03T02:34:29.953Z,6.15
2024-03-03T02:36:57.430Z,7.29
2024-03-03T02:39:24.893Z,6.76
2024-03-03T02:41:52.341Z,6.02
2024-03-03T02:44:19.756Z,5.79
2024-03-03T02:46:49.395Z,5.75
2024-03-03T02:49:16.872Z,5.94
2024-03-03T02:51:45.305Z,5.62
2024-03-03T02:54:14.197Z,5.68
2024-03-03T02:56:41.583Z,5.83
2024-03-03T02:59:08.964Z,6.64
2024-03-03T03:01:36.485Z,6.88
2024-03-03T03:04:04.756Z,6.55
2024-03-03T03:06:32.203Z,5.86
2024-03-03T03:08:59.554Z,5.29
2024-03-03T03:11:27.015Z,5.26
2024-03-03T03:13:54.709Z,5.84
2024-03-03T03:16:22.196Z,5.90
2024-03-03T03:18:49.603Z,6.63
2024-03-03T03:21:17.082Z,5.84
2024-03-03T03:23:44.489Z,5.64
2024-03-03T03:26:12.174Z,5.55
2024-03-03T03:28:43.113Z,5.87
2024-03-03T03:31:10.593Z,6.02
2024-03-03T03:33:38.022Z,6.11
2024-03-03T03:36:12.323Z,5.61
2024-03-03T03:38:39.926Z,5.77
2024-03-03T03:41:07.388Z,5.77
2024-03-03T03:43:34.876Z,5.66
2024-03-03T03:46:02.424Z,5.86
2024-03-03T03:48:29.936Z,6.06
2024-03-03T03:50:57.470Z,5.84
2024-03-03T03:53:24.778Z,6.03
2024-03-03T03:55:52.124Z,5.64
2024-03-03T03:58:19.585Z,5.47
2024-03-03T04:00:47.187Z,5.33
2024-03-03T04:03:14.646Z,5.81
2024-03-03T04:05:42.072Z,6.05
2024-03-03T04:08:09.526Z,5.96
2024-03-03T04:10:36.919Z,5.72
2024-03-03T04:13:04.949Z,6.00
2024-03-03T04:15:32.724Z,5.90
2024-03-03T04:18:00.228Z,6.14
2024-03-03T04:20:27.769Z,5.98
2024-03-03T04:22:55.151Z,6.17
2024-03-03T04:25:22.643Z,6.23
2024-03-03T04:27:50.131Z,6.69
2024-03-03T04:30:18.132Z,6.48
2024-03-03T04:32:45.655Z,7.06
2024-03-03T04:35:13.109Z,6.48
2024-03-03T04:37:40.805Z,6.41
2024-03-03T04:40:09.855Z,6.62
2024-03-03T04:42:37.162Z,7.23
2024-03-03T04:45:07.894Z,6.74
2024-03-03T04:47:36.152Z,6.14
2024-03-03T04:50:03.884Z,5.99
2024-03-03T04:52:31.313Z,5.78
2024-03-03T04:54:58.688Z,5.72
2024-03-03T04:57:26.123Z,5.43
2024-03-03T04:59:53.685Z,5.68
2024-03-03T05:02:21.125Z,5.79
2024-03-03T05:04:48.544Z,6.02
2024-03-03T05:07:17.221Z,6.18
2024-03-03T05:09:44.743Z,6.03
2024-03-03T05:12:12.173Z,6.12
2024-03-03T05:14:39.495Z,6.44
2024-03-03T05:17:06.816Z,6.49
2024-03-03T05:19:34.205Z,6.43
2024-03-03T05:22:01.623Z,6.14
2024-03-03T05:24:29.140Z,6.13
2024-03-03T05:26:56.455Z,5.89
2024-03-03T05:29:25.370Z,5.83
2024-03-03T05:31:52.769Z,5.95
2024-03-03T05:34:20.245Z,6.42
2024-03-03T05:36:47.974Z,6.40
2024-03-03T05:39:19.746Z,6.32
2024-03-03T05:41:47.088Z,6.37
2024-03-03T05:44:14.784Z,6.74
2024-03-03T05:46:42.179Z,5.95
2024-03-03T05:49:09.705Z,5.61
2024-03-03T05:51:37.879Z,6.07
2024-03-03T05:54:06.159Z,5.90
2024-03-03T05:56:36.411Z,5.89
2024-03-03T05:59:05.485Z,6.12
2024-03-03T06:01:33.323Z,6.45
2024-03-03T06:04:01.012Z,5.78
2024-03-03T06:06:28.835Z,5.94
2024-03-03T06:08:57.310Z,6.07
2024-03-03T06:11:24.783Z,6.41
2024-03-03T06:13:53.267Z,5.92
2024-03-03T06:16:20.645Z,6.31
2024-03-03T06:18:48.325Z,6.64
2024-03-03T06:21:16.916Z,6.62
2024-03-03T06:23:44.230Z,6.13
2024-03-03T06:26:16.422Z,7.02
2024-03-03T06:28:46.386Z,6.41
2024-03-03T06:31:14.452Z,6.66
2024-03-03T06:33:41.904Z,6.91
2024-03-03T06:36:18.523Z,6.87
2024-03-03T06:38:46.536Z,6.92
2024-03-03T06:41:15.990Z,6.90
2024-03-03T06:43:44.667Z,7.31
2024-03-03T06:46:13.158Z,7.80
2024-03-03T06:48:41.272Z,7.62
2024-03-03T06:51:09.129Z,7.34
2024-03-03T06:53:40.193Z,7.23
2024-03-03T06:56:16.654Z,7.20
2024-03-03T06:58:47.646Z,7.15
2024-03-03T07:01:16.655Z,6.79
2024-03-03T07:03:56.443Z,7.17
2024-03-03T07:06:24.190Z,6.75
2024-03-03T07:08:51.673Z,6.65
2024-03-03T07:11:19.182Z,6.98
2024-03-03T07:13:46.692Z,6.92
2024-03-03T07:16:14.017Z,7.36
2024-03-03T07:18:41.630Z,7.06
2024-03-03T07:21:09.330Z,7.48
2024-03-03T07:23:36.817Z,7.62
2024-03-03T07:26:04.295Z,7.53
2024-03-03T07:28:31.690Z,7.55
2024-03-03T07:30:59.064Z,7.72
2024-03-03T07:33:26.426Z,7.68
2024-03-03T07:35:53.791Z,7.48
2024-03-03T07:38:21.287Z,7.10
2024-03-03T07:40:48.680Z,7.52
2024-03-03T07:43:16.446Z,7.79
2024-03-03T07:45:43.930Z,7.61
2024-03-03T07:48:11.404Z,7.48
2024-03-03T07:50:38.848Z,8.63
2024-03-03T07:53:06.982Z,7.86
2024-03-03T07:55:34.422Z,7.67
2024-03-03T07:58:01.890Z,7.72
2024-03-03T08:00:35.144Z,7.77
2024-03-03T08:03:07.308Z,7.59
2024-03-03T08:05:35.392Z,7.18
2024-03-03T08:08:05.858Z,7.47
2024-03-03T08:10:34.114Z,7.44
2024-03-03T08:13:01.989Z,7.44
2024-03-03T08:15:29.872Z,7.51
2024-03-03T08:18:01.639Z,7.04
2024-03-03T08:20:29.971Z,7.56
2024-03-03T08:22:57.491Z,7.06
2024-03-03T08:25:26.081Z,7.62
2024-03-03T08:27:58.362Z,7.69
2024-03-03T08:30:26.287Z,7.54
2024-03-03T08:32:54.681Z,8.12
2024-03-03T08:35:22.124Z,7.56
2024-03-03T08:37:49.527Z,8.10
2024-03-03T08:40:20.543Z,8.36
2024-03-03T08:42:48.012Z,8.32
2024-03-03T08:45:15.474Z,7.90
2024-03-03T08:47:43.558Z,8.62
2024-03-03T08:50:11.775Z,8.58
2024-03-03T08:52:40.497Z,8.55
2024-03-03T08:55:08.342Z,9.00
2024-03-03T08:57:35.789Z,8.79
2024-03-03T09:00:03.817Z,8.37
2024-03-03T09:02:31.223Z,8.95
2024-03-03T09:05:08.869Z,8.90
2024-03-03T09:07:37.686Z,9.37
2024-03-03T09:10:06.434Z,9.28
2024-03-03T09:12:34.337Z,9.57
2024-03-03T09:15:02.030Z,9.40
2024-03-03T09:17:29.476Z,8.93
2024-03-03T09:19:56.848Z,9.09
2024-03-03T09:22:25.974Z,9.38
2024-03-03T09:24:53.753Z,8.62
2024-03-03T09:27:25.443Z,9.22
2024-03-03T09:29:54.002Z,9.07
2024-03-03T09:32:21.791Z,9.68
2024-03-03T09:34:49.103Z,8.64
2024-03-03T09:37:16.607Z,9.58
2024-03-03T09:39:44.574Z,9.66
2024-03-03T09:42:12.500Z,9.87
2024-03-03T09:44:45.389Z,10.44
2024-03-03T09:47:14.653Z,10.16
2024-03-03T09:49:46.713Z,10.11
2024-03-03T09:52:15.439Z,11.18
2024-03-03T09:54:43.837Z,10.52
2024-03-03T09:57:15.257Z,9.85
2024-03-03T09:59:43.090Z,10.04
2024-03-03T10:02:19.130Z,10.78
2024-03-03T10:04:49.879Z,10.10
2024-03-03T10:07:24.632Z,12.24
2024-03-03T10:10:05.273Z,11.09
2024-03-03T10:12:35.130Z,10.65
2024-03-03T10:15:06.418Z,11.60
2024-03-03T10:17:33.886Z,12.01
2024-03-03T10:20:10.133Z,12.53
2024-03-03T10:22:39.443Z,11.53
2024-03-03T10:25:19.534Z,11.63
2024-03-03T10:27:49.860Z,10.62
2024-03-03T10:30:23.802Z,11.27
2024-03-03T10:32:51.889Z,11.98
2024-03-03T10:35:20.330Z,11.81
2024-03-03T10:38:03.332Z,11.38
2024-03-03T10:40:32.995Z,11.15
2024-03-03T10:43:00.604Z,11.90
2024-03-03T10:45:28.097Z,12.36
2024-03-03T10:47:55.768Z,12.42
2024-03-03T10:50:24.623Z,11.42
2024-03-03T10:52:54.418Z,12.47
2024-03-03T10:55:22.236Z,11.48
2024-03-03T10:57:52.084Z,12.38
2024-03-03T11:00:26.180Z,12.63
2024-03-03T11:02:56.223Z,11.37
2024-03-03T11:05:25.941Z,11.47
2024-03-03T11:07:54.487Z,11.29
2024-03-03T11:10:22.146Z,11.41
2024-03-03T11:12:52.832Z,10.95
2024-03-03T11:15:23.036Z,10.73
2024-03-03T11:18:01.442Z,10.45
2024-03-03T11:20:40.725Z,11.01
2024-03-03T11:23:37.047Z,11.23
2024-03-03T11:26:25.036Z,11.76
2024-03-03T11:28:59.355Z,10.88
2024-03-03T11:31:28.654Z,10.68
2024-03-03T11:33:57.673Z,11.12
2024-03-03T11:36:26.116Z,10.77
2024-03-03T11:38:57.155Z,10.64
2024-03-03T11:41:24.729Z,10.56
2024-03-03T11:43:53.191Z,9.94
2024-03-03T11:46:59.682Z,10.80
2024-03-03T11:49:27.121Z,10.42
2024-03-03T11:51:54.706Z,12.17
2024-03-03T11:54:41.124Z,12.09
2024-03-03T11:57:12.737Z,13.18
2024-03-03T11:59:47.651Z,10.79
2024-03-03T12:02:18.620Z,11.30
2024-03-03T12:04:47.879Z,11.54
2024-03-03T12:07:24.361Z,10.90
2024-03-03T12:09:55.602Z,10.42
2024-03-03T12:12:24.190Z,11.57
2024-03-03T12:14:52.996Z,10.90
2024-03-03T12:17:20.404Z,11.77
2024-03-03T12:19:48.321Z,12.33
2024-03-03T12:22:15.872Z,12.27
2024-03-03T12:24:45.014Z,11.03
2024-03-03T12:27:13.182Z,11.18
2024-03-03T12:30:04.441Z,12.07
2024-03-03T12:32:31.903Z,12.00
2024-03-03T12:34:59.211Z,10.98
2024-03-03T12:37:28.335Z,11.53
2024-03-03T12:39:58.417Z,11.67
2024-03-03T12:42:26.453Z,11.38
2024-03-03T12:44:56.303Z,11.43
2024-03-03T12:47:23.914Z,10.87
2024-03-03T12:49:51.781Z,10.99
2024-03-03T12:52:19.569Z,10.52
2024-03-03T12:54:48.836Z,11.21
2024-03-03T12:57:16.749Z,10.76
2024-03-03T12:59:44.231Z,10.77
2024-03-03T13:02:17.749Z,10.59
2024-03-03T13:04:45.221Z,10.40
2024-03-03T13:07:12.673Z,10.95
2024-03-03T13:09:41.242Z,11.00
2024-03-03T13:12:08.993Z,10.63
2024-03-03T13:14:36.894Z,10.75
2024-03-03T13:17:09.309Z,10.83
2024-03-03T13:19:53.815Z,10.66
2024-03-03T13:22:23.567Z,12.08
2024-03-03T13:25:00.765Z,11.46
2024-03-03T13:27:34.615Z,10.80
2024-03-03T13:30:08.708Z,11.24
2024-03-03T13:32:36.226Z,11.29
2024-03-03T13:35:04.060Z,10.87
2024-03-03T13:37:31.622Z,10.90
2024-03-03T13:39:59.607Z,11.00
2024-03-03T13:42:27.444Z,11.38
2024-03-03T13:44:54.893Z,10.82
2024-03-03T13:47:22.425Z,10.98
2024-03-03T13:49:50.521Z,10.91
2024-03-03T13:52:18.068Z,11.20
2024-03-03T13:54:45.635Z,11.38
2024-03-03T13:57:13.237Z,11.01
2024-03-03T13:59:41.041Z,10.67
2024-03-03T14:02:08.438Z,10.61
2024-03-03T14:04:36.520Z,10.92
2024-03-03T14:07:04.441Z,10.48
2024-03-03T14:09:32.184Z,11.05
2024-03-03T14:11:59.931Z,10.29
2024-03-03T14:14:27.360Z,10.51
2024-03-03T14:16:54.842Z,11.44
2024-03-03T14:19:22.330Z,11.11
2024-03-03T14:21:51.666Z,10.87
2024-03-03T14:24:20.171Z,9.87
2024-03-03T14:26:47.694Z,10.59
2024-03-03T14:29:15.145Z,10.84
2024-03-03T14:31:42.615Z,10.48
2024-03-03T14:34:10.045Z,10.48
2024-03-03T14:36:38.882Z,10.21
2024-03-03T14:39:07.442Z,9.98
2024-03-03T14:41:34.983Z,10.61
2024-03-03T14:44:02.470Z,10.82
2024-03-03T14:46:29.951Z,9.90
2024-03-03T14:48:57.440Z,11.18
2024-03-03T14:51:25.282Z,11.23
2024-03-03T14:53:52.752Z,10.84
2024-03-03T14:56:21.622Z,10.13
2024-03-03T14:58:49.218Z,10.96
2024-03-03T15:01:16.750Z,10.74
2024-03-03T15:03:44.132Z,11.14
2024-03-03T15:06:12.971Z,10.75
2024-03-03T15:08:40.588Z,10.12
2024-03-03T15:11:08.080Z,10.71
2024-03-03T15:13:35.548Z,10.78
2024-03-03T15:16:04.873Z,10.68
2024-03-03T15:18:32.453Z,10.76
2024-03-03T15:20:59.939Z,10.66
2024-03-03T15:23:27.381Z,10.52
2024-03-03T15:25:55.305Z,10.49
2024-03-03T15:28:23.856Z,10.07
2024-03-03T15:30:51.334Z,10.79
2024-03-03T15:33:20.773Z,10.58
2024-03-03T15:35:49.683Z,10.17
2024-03-03T15:38:17.200Z,10.47
2024-03-03T15:40:44.725Z,10.30
2024-03-03T15:43:12.636Z,10.53
2024-03-03T15:45:41.167Z,9.87
2024-03-03T15:48:08.855Z,10.17
2024-03-03T15:50:38.483Z,10.29
2024-03-03T15:53:06.312Z,9.88
2024-03-03T15:55:35.378Z,10.40
2024-03-03T15:58:04.832Z,10.06
2024-03-03T16:00:32.154Z,10.33
2024-03-03T16:03:01.558Z,10.20
2024-03-03T16:05:30.513Z,10.54
2024-03-03T16:07:58.191Z,10.37
2024-03-03T16:10:25.641Z,10.12
2024-03-03T16:12:53.164Z,10.43
2024-03-03T16:15:21.919Z,10.41
2024-03-03T16:17:49.488Z,10.62
2024-03-03T16:20:18.439Z,10.32
2024-03-03T16:22:45.847Z,10.33
2024-03-03T16:25:13.262Z,10.02
2024-03-03T16:27:40.712Z,9.93
2024-03-03T16:30:09.307Z,9.54
2024-03-03T16:32:37.325Z,9.71
2024-03-03T16:35:06.469Z,10.09
2024-03-03T16:37:34.084Z,9.83
2024-03-03T16:40:01.603Z,10.21
2024-03-03T16:42:29.461Z,10.25
2024-03-03T16:45:10.198Z,10.13
2024-03-03T16:47:38.009Z,9.91
2024-03-03T16:50:06.301Z,10.15
2024-03-03T16:52:34.971Z,10.36
2024-03-03T16:55:02.619Z,10.19
2024-03-03T16:57:30.347Z,9.72
2024-03-03T16:59:57.718Z,9.61
2024-03-03T17:02:26.044Z,9.39
2024-03-03T17:04:53.593Z,10.40
2024-03-03T17:07:21.627Z,9.97
2024-03-03T17:09:50.012Z,9.99
2024-03-03T17:12:18.485Z,9.47
2024-03-03T17:14:45.834Z,9.49
2024-03-03T17:17:13.362Z,9.49
2024-03-03T17:19:40.752Z,9.48
2024-03-03T17:22:09.910Z,9.13
2024-03-03T17:24:37.349Z,9.43
2024-03-03T17:27:05.471Z,9.39
2024-03-03T17:29:33.857Z,9.00
2024-03-03T17:32:01.382Z,9.43
2024-03-03T17:34:32.010Z,9.13
2024-03-03T17:36:59.580Z,9.30
2024-03-03T17:39:27.038Z,9.39
2024-03-03T17:41:55.333Z,9.42
2024-03-03T17:44:23.825Z,9.51
2024-03-03T17:46:51.452Z,8.90
2024-03-03T17:49:18.838Z,8.96
2024-03-03T17:51:46.489Z,9.22
2024-03-03T17:54:16.033Z,9.07
2024-03-03T17:56:45.255Z,8.76
2024-03-03T17:59:19.887Z,9.16
2024-03-03T18:01:48.284Z,9.38
2024-03-03T18:04:16.930Z,9.63
2024-03-03T18:06:44.829Z,9.47
2024-03-03T18:09:13.953Z,9.10
2024-03-03T18:11:41.461Z,8.76
2024-03-03T18:14:09.945Z,8.77
2024-03-03T18:16:37.509Z,8.98
2024-03-03T18:19:05.428Z,8.79
2024-03-03T18:21:32.918Z,9.43
2024-03-03T18:24:00.389Z,8.85
2024-03-03T18:26:27.839Z,9.41
2024-03-03T18:28:55.776Z,9.39
2024-03-03T18:31:23.633Z,9.17
2024-03-03T18:33:52.277Z,9.23
2024-03-03T18:36:21.115Z,9.29
2024-03-03T18:38:48.634Z,9.25
2024-03-03T18:41:18.215Z,9.56
2024-03-03T18:43:45.644Z,8.64
2024-03-03T18:46:19.387Z,9.03
2024-03-03T18:48:47.645Z,8.92
2024-03-03T18:51:15.931Z,8.75
2024-03-03T18:53:43.355Z,8.99
2024-03-03T18:56:10.906Z,9.05
2024-03-03T18:58:38.915Z,8.90
2024-03-03T19:01:06.481Z,8.83
2024-03-03T19:03:35.202Z,9.34
2024-03-03T19:06:02.577Z,8.51
2024-03-03T19:08:29.878Z,9.00
2024-03-03T19:10:57.770Z,9.16
2024-03-03T19:13:26.794Z,9.45
2024-03-03T19:15:54.548Z,9.58
2024-03-03T19:18:21.987Z,9.89
2024-03-03T19:20:49.814Z,9.64
2024-03-03T19:23:18.525Z,9.50
2024-03-03T19:25:46.359Z,9.28
2024-03-03T19:28:15.140Z,8.64
2024-03-03T19:30:44.241Z,9.39
2024-03-03T19:33:13.787Z,9.01
2024-03-03T19:35:43.033Z,9.23
2024-03-03T19:38:10.312Z,9.29
2024-03-03T19:40:37.726Z,9.45
2024-03-03T19:43:05.322Z,9.29
2024-03-03T19:45:32.779Z,8.90
2024-03-03T19:48:02.783Z,8.96
2024-03-03T19:50:30.163Z,8.78
2024-03-03T19:52:57.476Z,8.80
2024-03-03T19:55:26.061Z,9.14
2024-03-03T19:57:54.062Z,8.89
2024-03-03T20:00:22.777Z,9.22
2024-03-03T20:02:50.203Z,9.00
2024-03-03T20:05:17.949Z,8.82
2024-03-03T20:07:45.423Z,8.82
2024-03-03T20:10:13.367Z,8.49
2024-03-03T20:12:41.126Z,8.76
2024-03-03T20:15:13.540Z,8.83
2024-03-03T20:17:41.157Z,9.23
2024-03-03T20:20:13.144Z,8.91
2024-03-03T20:22:41.155Z,9.14
2024-03-03T20:25:10.444Z,8.95
2024-03-03T20:27:38.652Z,8.64
2024-03-03T20:30:07.608Z,8.39
2024-03-03T20:32:35.388Z,8.25
2024-03-03T20:35:04.015Z,8.22
2024-03-03T20:37:32.218Z,8.26
2024-03-03T20:39:59.657Z,8.64
2024-03-03T20:42:27.310Z,8.95
2024-03-03T20:44:54.697Z,8.70
2024-03-03T20:47:22.110Z,8.47
2024-03-03T20:49:52.138Z,8.41
2024-03-03T20:52:19.842Z,8.72
2024-03-03T20:54:47.769Z,8.56
2024-03-03T20:57:15.385Z,8.79
2024-03-03T20:59:42.806Z,8.15
2024-03-03T21:02:13.194Z,8.59
2024-03-03T21:04:44.162Z,7.96
2024-03-03T21:07:17.276Z,7.99
2024-03-03T21:09:44.822Z,8.27
2024-03-03T21:12:14.383Z,8.23
2024-03-03T21:14:47.483Z,8.24
2024-03-03T21:17:16.079Z,8.24
2024-03-03T21:19:44.674Z,8.27
2024-03-03T21:22:15.028Z,8.04
2024-03-03T21:24:45.258Z,7.90
2024-03-03T21:27:14.633Z,8.14
2024-03-03T21:29:45.515Z,7.69
2024-03-03T21:32:13.380Z,7.50
2024-03-03T21:34:42.432Z,7.33
2024-03-03T21:37:15.196Z,7.19
2024-03-03T21:39:44.547Z,7.82
2024-03-03T21:42:11.993Z,7.83
2024-03-03T21:44:45.570Z,7.54
2024-03-03T21:47:13.611Z,7.53
2024-03-03T21:49:41.608Z,7.62
2024-03-03T21:52:11.211Z,7.45
2024-03-03T21:54:40.108Z,7.65
2024-03-03T21:57:13.478Z,7.82
2024-03-03T21:59:46.027Z,7.67
2024-03-03T22:02:13.531Z,7.04
2024-03-03T22:04:43.383Z,7.20
2024-03-03T22:07:12.642Z,6.94
2024-03-03T22:09:46.594Z,6.95
2024-03-03T22:12:16.148Z,7.68
2024-03-03T22:14:43.982Z,7.11
2024-03-03T22:17:13.725Z,7.17
2024-03-03T22:19:44.835Z,6.44
2024-03-03T22:22:14.622Z,6.36
2024-03-03T22:27:24.716Z,6.23
2024-03-03T22:29:52.136Z,6.91
2024-03-03T22:32:22.340Z,6.91
2024-03-03T22:34:51.549Z,6.85
2024-03-03T22:37:19.197Z,6.49
2024-03-03T22:39:47.137Z,6.69
2024-03-03T22:42:17.262Z,7.51
2024-03-03T22:44:45.075Z,7.17
2024-03-03T22:47:17.768Z,6.86
2024-03-03T22:49:45.483Z,6.47
2024-03-03T22:52:20.345Z,6.98
2024-03-03T22:54:47.893Z,6.45
2024-03-03T22:57:15.476Z,6.58
2024-03-03T22:59:54.498Z,6.00
2024-03-03T23:02:23.843Z,6.10
2024-03-03T23:04:55.623Z,5.68
2024-03-03T23:07:24.854Z,5.55
2024-03-03T23:09:53.685Z,5.53
2024-03-03T23:12:22.876Z,5.95
2024-03-03T23:14:51.546Z,5.89
2024-03-03T23:17:19.553Z,6.01
2024-03-03T23:19:47.877Z,5.77
2024-03-03T23:22:17.001Z,5.46
2024-03-03T23:24:47.305Z,5.75
2024-03-03T23:27:17.359Z,5.59
2024-03-03T23:29:45.712Z,5.79
2024-03-03T23:32:13.075Z,5.88
2024-03-03T23:34:42.504Z,5.81
2024-03-03T23:37:11.877Z,5.36
2024-03-03T23:39:41.798Z,5.38
2024-03-03T23:42:12.544Z,5.76
2024-03-03T23:44:40.486Z,5.65
2024-03-03T23:47:10.373Z,5.87
2024-03-03T23:49:38.106Z,6.04
2024-03-03T23:52:08.564Z,5.84
2024-03-03T23:54:37.788Z,5.72
2024-03-03T23:57:08.202Z,5.37
2024-03-03T23:59:35.807Z,5.60
